sensor_id;sensor_type;location;lat;lon;timestamp;P1;durP1;ratioP1;P2;durP2;ratioP2
19171;SDS011;9718;52.200;21.052;2022-07-06T00:02:10;13.10;;;8.83;;
19171;SDS011;9718;52.200;21.052;2022-07-06T00:04:37;13.13;;;9.47;;
19171;SDS011;9718;52.200;21.052;2022-07-06T00:07:04;10.77;;;8.40;;
19171;SDS011;9718;52.200;21.052;2022-07-06T00:09:32;10.83;;;8.67;;
19171;SDS011;9718;52.200;21.052;2022-07-06T00:12:00;12.07;;;8.93;;
19171;SDS011;9718;52.200;21.052;2022-07-06T00:14:27;13.47;;;8.83;;
19171;SDS011;9718;52.200;21.052;2022-07-06T00:16:54;13.50;;;8.30;;
19171;SDS011;9718;52.200;21.052;2022-07-06T00:19:21;12.47;;;8.27;;
19171;SDS011;9718;52.200;21.052;2022-07-06T00:21:48;12.43;;;8.03;;
19171;SDS011;9718;52.200;21.052;2022-07-06T00:24:15;11.23;;;8.60;;
19171;SDS011;9718;52.200;21.052;2022-07-06T00:26:44;11.53;;;8.50;;
19171;SDS011;9718;52.200;21.052;2022-07-06T00:29:12;12.23;;;8.30;;
19171;SDS011;9718;52.200;21.052;2022-07-06T00:31:39;15.27;;;8.63;;
19171;SDS011;9718;52.200;21.052;2022-07-06T00:34:06;13.53;;;9.17;;
19171;SDS011;9718;52.200;21.052;2022-07-06T00:36:36;12.30;;;8.83;;
19171;SDS011;9718;52.200;21.052;2022-07-06T00:39:03;12.93;;;8.43;;
19171;SDS011;9718;52.200;21.052;2022-07-06T00:41:30;12.77;;;8.70;;
19171;SDS011;9718;52.200;21.052;2022-07-06T00:43:57;14.50;;;9.83;;
19171;SDS011;9718;52.200;21.052;2022-07-06T00:46:28;11.97;;;9.00;;
19171;SDS011;9718;52.200;21.052;2022-07-06T00:48:58;12.97;;;9.03;;
19171;SDS011;9718;52.200;21.052;2022-07-06T00:51:28;10.77;;;7.90;;
19171;SDS011;9718;52.200;21.052;2022-07-06T00:54:00;14.07;;;8.03;;
19171;SDS011;9718;52.200;21.052;2022-07-06T00:56:30;10.03;;;7.20;;
19171;SDS011;9718;52.200;21.052;2022-07-06T00:58:59;11.27;;;7.47;;
19171;SDS011;9718;52.200;21.052;2022-07-06T01:01:27;9.13;;;7.10;;
19171;SDS011;9718;52.200;21.052;2022-07-06T01:03:54;11.07;;;7.43;;
19171;SDS011;9718;52.200;21.052;2022-07-06T01:06:22;10.90;;;7.17;;
19171;SDS011;9718;52.200;21.052;2022-07-06T01:08:49;11.13;;;7.07;;
19171;SDS011;9718;52.200;21.052;2022-07-06T01:11:17;13.27;;;7.43;;
19171;SDS011;9718;52.200;21.052;2022-07-06T01:13:47;13.67;;;6.67;;
19171;SDS011;9718;52.200;21.052;2022-07-06T01:16:14;12.07;;;8.20;;
19171;SDS011;9718;52.200;21.052;2022-07-06T01:18:42;11.37;;;7.40;;
19171;SDS011;9718;52.200;21.052;2022-07-06T01:21:13;10.70;;;7.70;;
19171;SDS011;9718;52.200;21.052;2022-07-06T01:23:41;10.67;;;7.40;;
19171;SDS011;9718;52.200;21.052;2022-07-06T01:26:13;11.70;;;7.63;;
19171;SDS011;9718;52.200;21.052;2022-07-06T01:28:42;10.90;;;7.43;;
19171;SDS011;9718;52.200;21.052;2022-07-06T01:31:16;12.00;;;7.33;;
19171;SDS011;9718;52.200;21.052;2022-07-06T01:33:49;11.87;;;7.33;;
19171;SDS011;9718;52.200;21.052;2022-07-06T01:36:17;10.03;;;7.17;;
19171;SDS011;9718;52.200;21.052;2022-07-06T01:38:45;10.43;;;7.30;;
19171;SDS011;9718;52.200;21.052;2022-07-06T01:41:13;10.63;;;6.80;;
19171;SDS011;9718;52.200;21.052;2022-07-06T01:43:40;10.67;;;7.00;;
19171;SDS011;9718;52.200;21.052;2022-07-06T01:46:07;10.00;;;6.73;;
19171;SDS011;9718;52.200;21.052;2022-07-06T01:48:34;9.90;;;7.07;;
19171;SDS011;9718;52.200;21.052;2022-07-06T01:51:02;9.43;;;6.30;;
19171;SDS011;9718;52.200;21.052;2022-07-06T01:53:30;11.83;;;7.03;;
19171;SDS011;9718;52.200;21.052;2022-07-06T01:55:58;12.30;;;6.70;;
19171;SDS011;9718;52.200;21.052;2022-07-06T01:58:25;10.40;;;7.37;;
19171;SDS011;9718;52.200;21.052;2022-07-06T02:00:52;11.63;;;7.07;;
19171;SDS011;9718;52.200;21.052;2022-07-06T02:03:19;14.07;;;7.10;;
19171;SDS011;9718;52.200;21.052;2022-07-06T02:05:46;11.87;;;6.83;;
19171;SDS011;9718;52.200;21.052;2022-07-06T02:08:13;9.40;;;6.83;;
19171;SDS011;9718;52.200;21.052;2022-07-06T02:10:40;11.17;;;6.67;;
19171;SDS011;9718;52.200;21.052;2022-07-06T02:13:08;9.80;;;6.43;;
19171;SDS011;9718;52.200;21.052;2022-07-06T02:15:35;13.33;;;7.10;;
19171;SDS011;9718;52.200;21.052;2022-07-06T02:18:02;8.60;;;6.90;;
19171;SDS011;9718;52.200;21.052;2022-07-06T02:20:29;11.27;;;7.10;;
19171;SDS011;9718;52.200;21.052;2022-07-06T02:22:56;11.20;;;6.80;;
19171;SDS011;9718;52.200;21.052;2022-07-06T02:25:24;11.57;;;6.97;;
19171;SDS011;9718;52.200;21.052;2022-07-06T02:27:51;9.97;;;7.07;;
19171;SDS011;9718;52.200;21.052;2022-07-06T02:30:18;8.70;;;6.43;;
19171;SDS011;9718;52.200;21.052;2022-07-06T02:32:46;10.43;;;6.90;;
19171;SDS011;9718;52.200;21.052;2022-07-06T02:35:13;9.27;;;6.10;;
19171;SDS011;9718;52.200;21.052;2022-07-06T02:37:40;10.03;;;6.67;;
19171;SDS011;9718;52.200;21.052;2022-07-06T02:40:08;12.10;;;7.73;;
19171;SDS011;9718;52.200;21.052;2022-07-06T02:42:35;10.77;;;6.93;;
19171;SDS011;9718;52.200;21.052;2022-07-06T02:45:03;8.40;;;6.07;;
19171;SDS011;9718;52.200;21.052;2022-07-06T02:47:31;9.03;;;6.30;;
19171;SDS011;9718;52.200;21.052;2022-07-06T02:49:58;12.97;;;6.47;;
19171;SDS011;9718;52.200;21.052;2022-07-06T02:52:25;9.30;;;6.07;;
19171;SDS011;9718;52.200;21.052;2022-07-06T02:54:52;7.40;;;6.13;;
19171;SDS011;9718;52.200;21.052;2022-07-06T02:57:19;8.90;;;5.77;;
19171;SDS011;9718;52.200;21.052;2022-07-06T02:59:46;9.10;;;6.27;;
19171;SDS011;9718;52.200;21.052;2022-07-06T03:02:16;7.83;;;5.53;;
19171;SDS011;9718;52.200;21.052;2022-07-06T03:04:43;11.73;;;6.07;;
19171;SDS011;9718;52.200;21.052;2022-07-06T03:07:10;8.20;;;5.93;;
19171;SDS011;9718;52.200;21.052;2022-07-06T03:09:38;9.47;;;5.87;;
19171;SDS011;9718;52.200;21.052;2022-07-06T03:12:05;10.37;;;6.30;;
19171;SDS011;9718;52.200;21.052;2022-07-06T03:14:33;8.83;;;6.47;;
19171;SDS011;9718;52.200;21.052;2022-07-06T03:17:00;9.27;;;5.57;;
19171;SDS011;9718;52.200;21.052;2022-07-06T03:19:27;9.13;;;6.40;;
19171;SDS011;9718;52.200;21.052;2022-07-06T03:21:54;11.37;;;6.97;;
19171;SDS011;9718;52.200;21.052;2022-07-06T03:24:21;8.07;;;5.97;;
19171;SDS011;9718;52.200;21.052;2022-07-06T03:26:48;9.90;;;6.27;;
19171;SDS011;9718;52.200;21.052;2022-07-06T03:29:15;9.60;;;6.27;;
19171;SDS011;9718;52.200;21.052;2022-07-06T03:31:43;8.23;;;5.53;;
19171;SDS011;9718;52.200;21.052;2022-07-06T03:34:10;9.20;;;6.00;;
19171;SDS011;9718;52.200;21.052;2022-07-06T03:36:37;11.00;;;6.30;;
19171;SDS011;9718;52.200;21.052;2022-07-06T03:39:05;8.00;;;6.07;;
19171;SDS011;9718;52.200;21.052;2022-07-06T03:41:32;7.00;;;5.87;;
19171;SDS011;9718;52.200;21.052;2022-07-06T03:44:00;7.80;;;5.70;;
19171;SDS011;9718;52.200;21.052;2022-07-06T03:46:27;8.67;;;6.00;;
19171;SDS011;9718;52.200;21.052;2022-07-06T03:48:55;8.27;;;5.83;;
19171;SDS011;9718;52.200;21.052;2022-07-06T03:51:22;9.03;;;6.00;;
19171;SDS011;9718;52.200;21.052;2022-07-06T03:53:50;7.03;;;5.50;;
19171;SDS011;9718;52.200;21.052;2022-07-06T03:56:17;6.23;;;5.33;;
19171;SDS011;9718;52.200;21.052;2022-07-06T03:58:56;9.37;;;5.73;;
19171;SDS011;9718;52.200;21.052;2022-07-06T04:01:25;8.17;;;5.60;;
19171;SDS011;9718;52.200;21.052;2022-07-06T04:03:52;7.87;;;5.00;;
19171;SDS011;9718;52.200;21.052;2022-07-06T04:06:20;7.80;;;5.73;;
19171;SDS011;9718;52.200;21.052;2022-07-06T04:08:47;8.53;;;5.37;;
19171;SDS011;9718;52.200;21.052;2022-07-06T04:11:14;8.93;;;5.47;;
19171;SDS011;9718;52.200;21.052;2022-07-06T04:13:41;7.57;;;4.60;;
19171;SDS011;9718;52.200;21.052;2022-07-06T04:16:08;8.17;;;4.20;;
19171;SDS011;9718;52.200;21.052;2022-07-06T04:18:36;6.23;;;5.03;;
19171;SDS011;9718;52.200;21.052;2022-07-06T04:21:03;5.83;;;4.73;;
19171;SDS011;9718;52.200;21.052;2022-07-06T04:23:30;6.83;;;4.47;;
19171;SDS011;9718;52.200;21.052;2022-07-06T04:25:57;7.17;;;4.60;;
19171;SDS011;9718;52.200;21.052;2022-07-06T04:28:25;7.10;;;4.67;;
19171;SDS011;9718;52.200;21.052;2022-07-06T04:30:52;5.50;;;4.37;;
19171;SDS011;9718;52.200;21.052;2022-07-06T04:33:19;6.03;;;4.43;;
19171;SDS011;9718;52.200;21.052;2022-07-06T04:35:46;8.27;;;4.23;;
19171;SDS011;9718;52.200;21.052;2022-07-06T04:38:13;5.43;;;4.20;;
19171;SDS011;9718;52.200;21.052;2022-07-06T04:40:40;8.77;;;4.13;;
19171;SDS011;9718;52.200;21.052;2022-07-06T04:43:08;6.10;;;4.20;;
19171;SDS011;9718;52.200;21.052;2022-07-06T04:45:35;4.93;;;4.07;;
19171;SDS011;9718;52.200;21.052;2022-07-06T04:48:02;6.50;;;4.40;;
19171;SDS011;9718;52.200;21.052;2022-07-06T04:50:30;10.83;;;4.93;;
19171;SDS011;9718;52.200;21.052;2022-07-06T04:53:05;8.73;;;4.63;;
19171;SDS011;9718;52.200;21.052;2022-07-06T04:55:32;7.07;;;4.53;;
19171;SDS011;9718;52.200;21.052;2022-07-06T04:57:59;8.23;;;4.50;;
19171;SDS011;9718;52.200;21.052;2022-07-06T05:00:27;6.87;;;4.50;;
19171;SDS011;9718;52.200;21.052;2022-07-06T05:02:54;10.13;;;4.43;;
19171;SDS011;9718;52.200;21.052;2022-07-06T05:05:21;6.60;;;4.40;;
19171;SDS011;9718;52.200;21.052;2022-07-06T05:07:49;5.40;;;4.00;;
19171;SDS011;9718;52.200;21.052;2022-07-06T05:10:16;5.67;;;4.40;;
19171;SDS011;9718;52.200;21.052;2022-07-06T05:12:43;5.90;;;4.67;;
19171;SDS011;9718;52.200;21.052;2022-07-06T05:15:10;6.43;;;3.90;;
19171;SDS011;9718;52.200;21.052;2022-07-06T05:17:38;8.70;;;4.33;;
19171;SDS011;9718;52.200;21.052;2022-07-06T05:20:05;4.73;;;3.97;;
19171;SDS011;9718;52.200;21.052;2022-07-06T05:22:33;6.07;;;4.30;;
19171;SDS011;9718;52.200;21.052;2022-07-06T05:25:00;5.13;;;4.10;;
19171;SDS011;9718;52.200;21.052;2022-07-06T05:27:27;5.30;;;4.80;;
19171;SDS011;9718;52.200;21.052;2022-07-06T05:29:54;6.97;;;4.37;;
19171;SDS011;9718;52.200;21.052;2022-07-06T05:32:21;6.13;;;4.37;;
19171;SDS011;9718;52.200;21.052;2022-07-06T05:34:49;5.83;;;4.10;;
19171;SDS011;9718;52.200;21.052;2022-07-06T05:37:17;11.03;;;4.93;;
19171;SDS011;9718;52.200;21.052;2022-07-06T05:39:44;7.60;;;5.03;;
19171;SDS011;9718;52.200;21.052;2022-07-06T05:42:13;7.87;;;4.67;;
19171;SDS011;9718;52.200;21.052;2022-07-06T05:44:40;7.63;;;4.67;;
19171;SDS011;9718;52.200;21.052;2022-07-06T05:47:07;7.23;;;4.53;;
19171;SDS011;9718;52.200;21.052;2022-07-06T05:49:53;7.33;;;4.87;;
19171;SDS011;9718;52.200;21.052;2022-07-06T05:52:39;10.10;;;4.93;;
19171;SDS011;9718;52.200;21.052;2022-07-06T05:55:11;10.47;;;4.50;;
19171;SDS011;9718;52.200;21.052;2022-07-06T05:57:39;8.77;;;4.33;;
19171;SDS011;9718;52.200;21.052;2022-07-06T06:00:09;7.20;;;4.70;;
19171;SDS011;9718;52.200;21.052;2022-07-06T06:02:40;6.23;;;4.67;;
19171;SDS011;9718;52.200;21.052;2022-07-06T06:05:08;7.00;;;4.90;;
19171;SDS011;9718;52.200;21.052;2022-07-06T06:07:37;8.03;;;4.90;;
19171;SDS011;9718;52.200;21.052;2022-07-06T06:10:05;8.57;;;5.00;;
19171;SDS011;9718;52.200;21.052;2022-07-06T06:12:35;7.53;;;4.80;;
19171;SDS011;9718;52.200;21.052;2022-07-06T06:15:02;7.20;;;5.30;;
19171;SDS011;9718;52.200;21.052;2022-07-06T06:17:30;7.17;;;5.43;;
19171;SDS011;9718;52.200;21.052;2022-07-06T06:19:58;7.03;;;4.50;;
19171;SDS011;9718;52.200;21.052;2022-07-06T06:22:26;5.00;;;4.40;;
19171;SDS011;9718;52.200;21.052;2022-07-06T06:24:53;8.67;;;4.93;;
19171;SDS011;9718;52.200;21.052;2022-07-06T06:27:20;9.93;;;4.30;;
19171;SDS011;9718;52.200;21.052;2022-07-06T06:29:47;32.53;;;19.53;;
19171;SDS011;9718;52.200;21.052;2022-07-06T06:32:14;62.23;;;36.77;;
19171;SDS011;9718;52.200;21.052;2022-07-06T06:34:41;7.57;;;5.50;;
19171;SDS011;9718;52.200;21.052;2022-07-06T06:37:08;6.73;;;4.30;;
19171;SDS011;9718;52.200;21.052;2022-07-06T06:39:35;6.83;;;4.50;;
19171;SDS011;9718;52.200;21.052;2022-07-06T06:42:02;4.70;;;4.17;;
19171;SDS011;9718;52.200;21.052;2022-07-06T06:44:31;5.83;;;4.33;;
19171;SDS011;9718;52.200;21.052;2022-07-06T06:48:04;8.13;;;4.70;;
19171;SDS011;9718;52.200;21.052;2022-07-06T06:50:32;7.33;;;4.70;;
19171;SDS011;9718;52.200;21.052;2022-07-06T06:52:59;14.27;;;9.87;;
19171;SDS011;9718;52.200;21.052;2022-07-06T06:55:26;8.70;;;5.40;;
19171;SDS011;9718;52.200;21.052;2022-07-06T06:57:53;7.43;;;5.37;;
19171;SDS011;9718;52.200;21.052;2022-07-06T07:00:20;6.63;;;4.57;;
19171;SDS011;9718;52.200;21.052;2022-07-06T07:02:47;7.67;;;4.50;;
19171;SDS011;9718;52.200;21.052;2022-07-06T07:05:15;7.40;;;4.63;;
19171;SDS011;9718;52.200;21.052;2022-07-06T07:07:42;7.43;;;4.63;;
19171;SDS011;9718;52.200;21.052;2022-07-06T07:10:09;6.47;;;4.63;;
19171;SDS011;9718;52.200;21.052;2022-07-06T07:12:46;11.13;;;5.13;;
19171;SDS011;9718;52.200;21.052;2022-07-06T07:15:15;9.83;;;6.13;;
19171;SDS011;9718;52.200;21.052;2022-07-06T07:17:43;10.23;;;6.30;;
19171;SDS011;9718;52.200;21.052;2022-07-06T07:20:10;11.60;;;5.97;;
19171;SDS011;9718;52.200;21.052;2022-07-06T07:22:37;8.67;;;5.47;;
19171;SDS011;9718;52.200;21.052;2022-07-06T07:25:05;10.40;;;6.40;;
19171;SDS011;9718;52.200;21.052;2022-07-06T07:27:33;7.97;;;6.03;;
19171;SDS011;9718;52.200;21.052;2022-07-06T07:30:00;8.47;;;5.87;;
19171;SDS011;9718;52.200;21.052;2022-07-06T07:32:27;8.83;;;6.13;;
19171;SDS011;9718;52.200;21.052;2022-07-06T07:34:55;10.50;;;5.60;;
19171;SDS011;9718;52.200;21.052;2022-07-06T07:37:22;10.37;;;5.70;;
19171;SDS011;9718;52.200;21.052;2022-07-06T07:39:49;10.77;;;6.07;;
19171;SDS011;9718;52.200;21.052;2022-07-06T07:42:16;10.83;;;5.50;;
19171;SDS011;9718;52.200;21.052;2022-07-06T07:44:44;16.97;;;9.73;;
19171;SDS011;9718;52.200;21.052;2022-07-06T07:47:12;10.67;;;5.57;;
19171;SDS011;9718;52.200;21.052;2022-07-06T07:49:39;14.53;;;9.63;;
19171;SDS011;9718;52.200;21.052;2022-07-06T07:52:06;11.87;;;6.67;;
19171;SDS011;9718;52.200;21.052;2022-07-06T07:54:34;7.23;;;5.00;;
19171;SDS011;9718;52.200;21.052;2022-07-06T07:57:01;10.47;;;4.60;;
19171;SDS011;9718;52.200;21.052;2022-07-06T07:59:28;7.50;;;4.40;;
19171;SDS011;9718;52.200;21.052;2022-07-06T08:01:55;7.70;;;4.03;;
19171;SDS011;9718;52.200;21.052;2022-07-06T08:04:24;7.37;;;4.13;;
19171;SDS011;9718;52.200;21.052;2022-07-06T08:06:51;6.17;;;3.83;;
19171;SDS011;9718;52.200;21.052;2022-07-06T08:09:26;4.07;;;3.20;;
19171;SDS011;9718;52.200;21.052;2022-07-06T08:11:53;4.13;;;2.60;;
19171;SDS011;9718;52.200;21.052;2022-07-06T08:14:20;11.20;;;6.53;;
19171;SDS011;9718;52.200;21.052;2022-07-06T08:16:48;13.20;;;9.13;;
19171;SDS011;9718;52.200;21.052;2022-07-06T08:19:15;4.63;;;2.77;;
19171;SDS011;9718;52.200;21.052;2022-07-06T08:21:43;7.53;;;2.90;;
19171;SDS011;9718;52.200;21.052;2022-07-06T08:24:10;4.03;;;2.57;;
19171;SDS011;9718;52.200;21.052;2022-07-06T08:26:37;4.27;;;2.70;;
19171;SDS011;9718;52.200;21.052;2022-07-06T08:29:05;6.63;;;2.80;;
19171;SDS011;9718;52.200;21.052;2022-07-06T08:31:32;2.67;;;2.30;;
19171;SDS011;9718;52.200;21.052;2022-07-06T08:34:21;6.17;;;2.70;;
19171;SDS011;9718;52.200;21.052;2022-07-06T08:36:49;2.83;;;1.97;;
19171;SDS011;9718;52.200;21.052;2022-07-06T08:39:16;4.50;;;2.00;;
19171;SDS011;9718;52.200;21.052;2022-07-06T08:41:44;4.07;;;2.00;;
19171;SDS011;9718;52.200;21.052;2022-07-06T08:44:15;2.40;;;1.77;;
19171;SDS011;9718;52.200;21.052;2022-07-06T08:46:43;2.42;;;1.63;;
19171;SDS011;9718;52.200;21.052;2022-07-06T08:49:15;2.43;;;1.60;;
19171;SDS011;9718;52.200;21.052;2022-07-06T08:51:43;3.42;;;1.40;;
19171;SDS011;9718;52.200;21.052;2022-07-06T08:54:11;6.13;;;1.60;;
19171;SDS011;9718;52.200;21.052;2022-07-06T08:56:39;2.25;;;1.60;;
19171;SDS011;9718;52.200;21.052;2022-07-06T08:59:15;4.75;;;1.60;;
19171;SDS011;9718;52.200;21.052;2022-07-06T09:01:42;5.50;;;1.40;;
19171;SDS011;9718;52.200;21.052;2022-07-06T09:04:11;3.40;;;1.42;;
19171;SDS011;9718;52.200;21.052;2022-07-06T09:06:42;5.78;;;1.42;;
19171;SDS011;9718;52.200;21.052;2022-07-06T09:09:12;2.17;;;1.17;;
19171;SDS011;9718;52.200;21.052;2022-07-06T09:11:47;5.68;;;1.42;;
19171;SDS011;9718;52.200;21.052;2022-07-06T09:14:14;3.25;;;1.20;;
19171;SDS011;9718;52.200;21.052;2022-07-06T09:16:42;1.63;;;1.30;;
19171;SDS011;9718;52.200;21.052;2022-07-06T09:19:10;4.25;;;1.48;;
19171;SDS011;9718;52.200;21.052;2022-07-06T09:21:38;3.70;;;1.60;;
19171;SDS011;9718;52.200;21.052;2022-07-06T09:24:07;3.87;;;1.50;;
19171;SDS011;9718;52.200;21.052;2022-07-06T09:26:36;3.33;;;1.40;;
19171;SDS011;9718;52.200;21.052;2022-07-06T09:29:04;2.73;;;1.20;;
19171;SDS011;9718;52.200;21.052;2022-07-06T09:31:32;7.93;;;3.17;;
19171;SDS011;9718;52.200;21.052;2022-07-06T09:34:04;3.63;;;1.10;;
19171;SDS011;9718;52.200;21.052;2022-07-06T09:39:18;2.88;;;0.98;;
19171;SDS011;9718;52.200;21.052;2022-07-06T09:41:48;3.05;;;2.67;;
19171;SDS011;9718;52.200;21.052;2022-07-06T09:44:27;2.15;;;1.00;;
19171;SDS011;9718;52.200;21.052;2022-07-06T09:46:57;3.00;;;1.33;;
19171;SDS011;9718;52.200;21.052;2022-07-06T09:49:30;2.45;;;1.08;;
19171;SDS011;9718;52.200;21.052;2022-07-06T09:51:58;2.65;;;0.80;;
19171;SDS011;9718;52.200;21.052;2022-07-06T09:54:27;3.05;;;1.48;;
19171;SDS011;9718;52.200;21.052;2022-07-06T09:56:56;8.38;;;2.38;;
19171;SDS011;9718;52.200;21.052;2022-07-06T09:59:29;2.70;;;0.70;;
19171;SDS011;9718;52.200;21.052;2022-07-06T10:01:59;3.25;;;0.77;;
19171;SDS011;9718;52.200;21.052;2022-07-06T10:04:28;1.88;;;1.00;;
19171;SDS011;9718;52.200;21.052;2022-07-06T10:06:56;3.28;;;1.02;;
19171;SDS011;9718;52.200;21.052;2022-07-06T10:09:25;2.40;;;0.77;;
19171;SDS011;9718;52.200;21.052;2022-07-06T10:11:56;1.50;;;0.60;;
19171;SDS011;9718;52.200;21.052;2022-07-06T10:14:27;4.93;;;0.70;;
19171;SDS011;9718;52.200;21.052;2022-07-06T10:16:59;1.05;;;0.68;;
19171;SDS011;9718;52.200;21.052;2022-07-06T10:19:28;5.10;;;0.82;;
19171;SDS011;9718;52.200;21.052;2022-07-06T10:21:58;3.23;;;0.80;;
19171;SDS011;9718;52.200;21.052;2022-07-06T10:24:27;1.27;;;0.70;;
19171;SDS011;9718;52.200;21.052;2022-07-06T10:26:56;1.10;;;0.50;;
19171;SDS011;9718;52.200;21.052;2022-07-06T10:29:24;1.15;;;0.70;;
19171;SDS011;9718;52.200;21.052;2022-07-06T10:31:51;2.25;;;0.80;;
19171;SDS011;9718;52.200;21.052;2022-07-06T10:34:20;4.30;;;0.70;;
19171;SDS011;9718;52.200;21.052;2022-07-06T10:36:50;0.57;;;0.45;;
19171;SDS011;9718;52.200;21.052;2022-07-06T10:39:36;4.72;;;0.80;;
19171;SDS011;9718;52.200;21.052;2022-07-06T10:45:13;1.10;;;0.68;;
19171;SDS011;9718;52.200;21.052;2022-07-06T10:47:41;5.05;;;1.05;;
19171;SDS011;9718;52.200;21.052;2022-07-06T10:50:09;2.65;;;0.90;;
19171;SDS011;9718;52.200;21.052;2022-07-06T10:52:49;4.68;;;0.80;;
19171;SDS011;9718;52.200;21.052;2022-07-06T10:58:04;4.80;;;0.98;;
19171;SDS011;9718;52.200;21.052;2022-07-06T11:00:48;4.93;;;1.00;;
19171;SDS011;9718;52.200;21.052;2022-07-06T11:03:32;4.03;;;1.08;;
19171;SDS011;9718;52.200;21.052;2022-07-06T11:06:00;1.23;;;0.80;;
19171;SDS011;9718;52.200;21.052;2022-07-06T11:08:43;1.52;;;0.80;;
19171;SDS011;9718;52.200;21.052;2022-07-06T11:11:11;4.93;;;0.80;;
19171;SDS011;9718;52.200;21.052;2022-07-06T11:16:25;4.00;;;1.30;;
19171;SDS011;9718;52.200;21.052;2022-07-06T11:24:17;31.27;;;21.48;;
19171;SDS011;9718;52.200;21.052;2022-07-06T11:26:49;6.85;;;3.25;;
19171;SDS011;9718;52.200;21.052;2022-07-06T11:29:18;1.77;;;0.80;;
19171;SDS011;9718;52.200;21.052;2022-07-06T11:31:50;1.27;;;0.73;;
19171;SDS011;9718;52.200;21.052;2022-07-06T11:34:21;3.50;;;0.88;;
19171;SDS011;9718;52.200;21.052;2022-07-06T11:37:06;0.52;;;0.52;;
19171;SDS011;9718;52.200;21.052;2022-07-06T11:39:41;1.42;;;0.63;;
19171;SDS011;9718;52.200;21.052;2022-07-06T11:42:10;1.00;;;0.52;;
19171;SDS011;9718;52.200;21.052;2022-07-06T11:44:41;1.67;;;0.68;;
19171;SDS011;9718;52.200;21.052;2022-07-06T11:47:09;1.40;;;0.57;;
19171;SDS011;9718;52.200;21.052;2022-07-06T11:49:38;1.10;;;0.82;;
19171;SDS011;9718;52.200;21.052;2022-07-06T11:52:07;5.03;;;0.65;;
19171;SDS011;9718;52.200;21.052;2022-07-06T11:54:39;5.38;;;1.40;;
19171;SDS011;9718;52.200;21.052;2022-07-06T11:57:07;9.53;;;5.87;;
19171;SDS011;9718;52.200;21.052;2022-07-06T11:59:37;2.17;;;1.03;;
19171;SDS011;9718;52.200;21.052;2022-07-06T12:02:14;2.37;;;1.07;;
19171;SDS011;9718;52.200;21.052;2022-07-06T12:04:43;1.45;;;0.75;;
19171;SDS011;9718;52.200;21.052;2022-07-06T12:07:12;3.58;;;0.90;;
19171;SDS011;9718;52.200;21.052;2022-07-06T12:09:42;2.38;;;0.57;;
19171;SDS011;9718;52.200;21.052;2022-07-06T12:12:11;3.35;;;0.82;;
19171;SDS011;9718;52.200;21.052;2022-07-06T12:14:40;0.95;;;0.55;;
19171;SDS011;9718;52.200;21.052;2022-07-06T12:17:08;0.80;;;0.60;;
19171;SDS011;9718;52.200;21.052;2022-07-06T12:19:38;1.48;;;0.60;;
19171;SDS011;9718;52.200;21.052;2022-07-06T12:22:06;1.83;;;0.75;;
19171;SDS011;9718;52.200;21.052;2022-07-06T12:24:34;4.43;;;0.73;;
19171;SDS011;9718;52.200;21.052;2022-07-06T12:27:10;1.45;;;0.77;;
19171;SDS011;9718;52.200;21.052;2022-07-06T12:29:39;3.38;;;0.70;;
19171;SDS011;9718;52.200;21.052;2022-07-06T12:32:06;4.70;;;0.70;;
19171;SDS011;9718;52.200;21.052;2022-07-06T12:34:40;1.45;;;0.60;;
19171;SDS011;9718;52.200;21.052;2022-07-06T12:37:08;7.13;;;0.75;;
19171;SDS011;9718;52.200;21.052;2022-07-06T12:39:42;3.22;;;1.08;;
19171;SDS011;9718;52.200;21.052;2022-07-06T12:42:17;1.45;;;0.82;;
19171;SDS011;9718;52.200;21.052;2022-07-06T12:44:47;1.38;;;0.70;;
19171;SDS011;9718;52.200;21.052;2022-07-06T12:47:22;0.77;;;0.57;;
19171;SDS011;9718;52.200;21.052;2022-07-06T12:50:04;2.20;;;0.68;;
19171;SDS011;9718;52.200;21.052;2022-07-06T12:52:33;0.80;;;0.50;;
19171;SDS011;9718;52.200;21.052;2022-07-06T12:55:01;1.50;;;0.93;;
19171;SDS011;9718;52.200;21.052;2022-07-06T12:57:44;3.00;;;0.77;;
19171;SDS011;9718;52.200;21.052;2022-07-06T13:00:12;2.22;;;0.70;;
19171;SDS011;9718;52.200;21.052;2022-07-06T13:02:43;1.88;;;0.65;;
19171;SDS011;9718;52.200;21.052;2022-07-06T13:05:32;2.53;;;0.82;;
19171;SDS011;9718;52.200;21.052;2022-07-06T13:08:01;5.55;;;0.52;;
19171;SDS011;9718;52.200;21.052;2022-07-06T13:10:29;2.80;;;0.75;;
19171;SDS011;9718;52.200;21.052;2022-07-06T13:13:00;2.70;;;0.60;;
19171;SDS011;9718;52.200;21.052;2022-07-06T13:15:27;2.35;;;0.75;;
19171;SDS011;9718;52.200;21.052;2022-07-06T13:17:54;1.80;;;0.70;;
19171;SDS011;9718;52.200;21.052;2022-07-06T13:20:21;3.42;;;0.82;;
19171;SDS011;9718;52.200;21.052;2022-07-06T13:22:49;3.33;;;0.90;;
19171;SDS011;9718;52.200;21.052;2022-07-06T13:25:17;1.63;;;0.93;;
19171;SDS011;9718;52.200;21.052;2022-07-06T13:27:44;3.70;;;0.80;;
19171;SDS011;9718;52.200;21.052;2022-07-06T13:30:11;2.58;;;0.90;;
19171;SDS011;9718;52.200;21.052;2022-07-06T13:32:38;3.13;;;0.85;;
19171;SDS011;9718;52.200;21.052;2022-07-06T13:35:06;4.00;;;0.88;;
19171;SDS011;9718;52.200;21.052;2022-07-06T13:37:33;4.10;;;0.90;;
19171;SDS011;9718;52.200;21.052;2022-07-06T13:40:01;0.90;;;0.70;;
19171;SDS011;9718;52.200;21.052;2022-07-06T13:42:28;2.15;;;0.70;;
19171;SDS011;9718;52.200;21.052;2022-07-06T13:44:55;2.30;;;0.85;;
19171;SDS011;9718;52.200;21.052;2022-07-06T13:47:23;1.63;;;1.10;;
19171;SDS011;9718;52.200;21.052;2022-07-06T13:49:50;4.25;;;0.73;;
19171;SDS011;9718;52.200;21.052;2022-07-06T13:52:17;1.13;;;0.63;;
19171;SDS011;9718;52.200;21.052;2022-07-06T13:54:44;4.78;;;0.80;;
19171;SDS011;9718;52.200;21.052;2022-07-06T13:57:11;2.80;;;0.65;;
19171;SDS011;9718;52.200;21.052;2022-07-06T13:59:38;1.73;;;0.80;;
19171;SDS011;9718;52.200;21.052;2022-07-06T14:02:06;1.02;;;0.68;;
19171;SDS011;9718;52.200;21.052;2022-07-06T14:04:37;1.63;;;0.80;;
19171;SDS011;9718;52.200;21.052;2022-07-06T14:07:05;4.03;;;0.77;;
19171;SDS011;9718;52.200;21.052;2022-07-06T14:09:32;0.88;;;0.63;;
19171;SDS011;9718;52.200;21.052;2022-07-06T14:12:00;1.40;;;1.00;;
19171;SDS011;9718;52.200;21.052;2022-07-06T14:14:27;3.07;;;0.90;;
19171;SDS011;9718;52.200;21.052;2022-07-06T14:16:54;6.40;;;1.57;;
19171;SDS011;9718;52.200;21.052;2022-07-06T14:19:22;1.90;;;1.00;;
19171;SDS011;9718;52.200;21.052;2022-07-06T14:21:49;1.77;;;0.70;;
19171;SDS011;9718;52.200;21.052;2022-07-06T14:24:17;1.80;;;1.20;;
19171;SDS011;9718;52.200;21.052;2022-07-06T14:26:44;1.23;;;0.73;;
19171;SDS011;9718;52.200;21.052;2022-07-06T14:29:11;1.50;;;0.97;;
19171;SDS011;9718;52.200;21.052;2022-07-06T14:31:38;1.70;;;0.67;;
19171;SDS011;9718;52.200;21.052;2022-07-06T14:34:06;1.37;;;0.70;;
19171;SDS011;9718;52.200;21.052;2022-07-06T14:36:33;6.33;;;1.27;;
19171;SDS011;9718;52.200;21.052;2022-07-06T14:39:04;1.70;;;0.87;;
19171;SDS011;9718;52.200;21.052;2022-07-06T14:41:32;2.30;;;1.00;;
19171;SDS011;9718;52.200;21.052;2022-07-06T14:43:59;2.00;;;1.03;;
19171;SDS011;9718;52.200;21.052;2022-07-06T14:46:26;2.93;;;0.80;;
19171;SDS011;9718;52.200;21.052;2022-07-06T14:48:53;2.30;;;0.90;;
19171;SDS011;9718;52.200;21.052;2022-07-06T14:51:20;1.67;;;1.07;;
19171;SDS011;9718;52.200;21.052;2022-07-06T14:53:48;2.13;;;0.77;;
19171;SDS011;9718;52.200;21.052;2022-07-06T14:56:15;2.57;;;1.10;;
19171;SDS011;9718;52.200;21.052;2022-07-06T14:58:42;2.93;;;1.20;;
19171;SDS011;9718;52.200;21.052;2022-07-06T15:01:29;3.97;;;0.80;;
19171;SDS011;9718;52.200;21.052;2022-07-06T15:03:56;3.53;;;1.10;;
19171;SDS011;9718;52.200;21.052;2022-07-06T15:06:26;2.13;;;0.70;;
19171;SDS011;9718;52.200;21.052;2022-07-06T15:09:14;1.83;;;0.90;;
19171;SDS011;9718;52.200;21.052;2022-07-06T15:11:41;2.93;;;0.70;;
19171;SDS011;9718;52.200;21.052;2022-07-06T15:14:08;3.33;;;0.90;;